sensor_id;sensor_type;location;lat;lon;timestamp;pressure;altitude;pressure_sealevel;temperature;humidity
75089;BME280;63673;49.928;8.150;2022-10-16T00:00:31;987.97;;;13.34;100
75089;BME280;63673;49.928;8.150;2022-10-16T00:01:32;987.99;;;13.34;100
75089;BME280;63673;49.928;8.150;2022-10-16T00:02:34;987.96;;;13.34;100
75089;BME280;63673;49.928;8.150;2022-10-16T00:03:36;988;;;13.34;100
75089;BME280;63673;49.928;8.150;2022-10-16T00:04:38;988.08;;;13.34;100
75089;BME280;63673;49.928;8.150;2022-10-16T00:05:40;988.08;;;13.33;100
75089;BME280;63673;49.928;8.150;2022-10-16T00:06:41;988.06;;;13.33;100
75089;BME280;63673;49.928;8.150;2022-10-16T00:07:43;988.09;;;13.32;100
75089;BME280;63673;49.928;8.150;2022-10-16T00:08:45;988;;;13.3;100
75089;BME280;63673;49.928;8.150;2022-10-16T00:09:46;988.06;;;13.3;100
75089;BME280;63673;49.928;8.150;2022-10-16T00:10:48;988.09;;;13.29;100
75089;BME280;63673;49.928;8.150;2022-10-16T00:11:50;988.04;;;13.28;100
75089;BME280;63673;49.928;8.150;2022-10-16T00:12:51;988.11;;;13.27;100
75089;BME280;63673;49.928;8.150;2022-10-16T00:13:54;988.06;;;13.25;100
75089;BME280;63673;49.928;8.150;2022-10-16T00:14:55;988.07;;;13.24;100
75089;BME280;63673;49.928;8.150;2022-10-16T00:15:57;988.08;;;13.24;100
75089;BME280;63673;49.928;8.150;2022-10-16T00:16:58;988.06;;;13.22;100
75089;BME280;63673;49.928;8.150;2022-10-16T00:18:00;988.02;;;13.21;100
75089;BME280;63673;49.928;8.150;2022-10-16T00:19:02;987.98;;;13.21;100
75089;BME280;63673;49.928;8.150;2022-10-16T00:20:04;988.03;;;13.2;100
75089;BME280;63673;49.928;8.150;2022-10-16T00:21:07;987.94;;;13.2;100
75089;BME280;63673;49.928;8.150;2022-10-16T00:22:07;988.04;;;13.2;100
75089;BME280;63673;49.928;8.150;2022-10-16T00:23:09;987.99;;;13.2;100
75089;BME280;63673;49.928;8.150;2022-10-16T00:24:11;988;;;13.2;100
75089;BME280;63673;49.928;8.150;2022-10-16T00:25:12;988.01;;;13.2;100
75089;BME280;63673;49.928;8.150;2022-10-16T00:26:15;988.05;;;13.2;100
75089;BME280;63673;49.928;8.150;2022-10-16T00:27:16;988.1;;;13.21;100
75089;BME280;63673;49.928;8.150;2022-10-16T00:28:17;988.16;;;13.2;100
75089;BME280;63673;49.928;8.150;2022-10-16T00:29:19;988.16;;;13.22;100
75089;BME280;63673;49.928;8.150;2022-10-16T00:30:21;988.09;;;13.22;100
75089;BME280;63673;49.928;8.150;2022-10-16T00:31:23;988.1;;;13.22;100
75089;BME280;63673;49.928;8.150;2022-10-16T00:32:24;988.04;;;13.22;100
75089;BME280;63673;49.928;8.150;2022-10-16T00:33:26;988.02;;;13.23;100
75089;BME280;63673;49.928;8.150;2022-10-16T00:34:28;988.04;;;13.24;100
75089;BME280;63673;49.928;8.150;2022-10-16T00:35:30;988.05;;;13.24;100
75089;BME280;63673;49.928;8.150;2022-10-16T00:36:31;988.1;;;13.24;100
75089;BME280;63673;49.928;8.150;2022-10-16T00:37:33;988.06;;;13.25;100
75089;BME280;63673;49.928;8.150;2022-10-16T00:38:35;988.01;;;13.26;100
75089;BME280;63673;49.928;8.150;2022-10-16T00:39:37;988.03;;;13.27;100
75089;BME280;63673;49.928;8.150;2022-10-16T00:40:38;987.98;;;13.27;100
75089;BME280;63673;49.928;8.150;2022-10-16T00:41:40;988.04;;;13.28;100
75089;BME280;63673;49.928;8.150;2022-10-16T00:42:42;988.07;;;13.28;100
75089;BME280;63673;49.928;8.150;2022-10-16T00:43:44;988.1;;;13.28;100
75089;BME280;63673;49.928;8.150;2022-10-16T00:44:47;988.12;;;13.28;100
75089;BME280;63673;49.928;8.150;2022-10-16T00:45:47;988.07;;;13.29;100
75089;BME280;63673;49.928;8.150;2022-10-16T00:46:49;988.12;;;13.3;100
75089;BME280;63673;49.928;8.150;2022-10-16T00:47:51;988.13;;;13.31;100
75089;BME280;63673;49.928;8.150;2022-10-16T00:48:54;988.08;;;13.32;100
75089;BME280;63673;49.928;8.150;2022-10-16T00:49:55;988.17;;;13.32;100
75089;BME280;63673;49.928;8.150;2022-10-16T00:50:56;988.22;;;13.32;100
75089;BME280;63673;49.928;8.150;2022-10-16T00:51:57;988.2;;;13.34;100
75089;BME280;63673;49.928;8.150;2022-10-16T00:52:59;988.2;;;13.35;100
75089;BME280;63673;49.928;8.150;2022-10-16T00:54:01;988.21;;;13.36;100
75089;BME280;63673;49.928;8.150;2022-10-16T00:55:03;988.19;;;13.37;100
75089;BME280;63673;49.928;8.150;2022-10-16T00:56:04;988.23;;;13.38;100
75089;BME280;63673;49.928;8.150;2022-10-16T00:57:06;988.18;;;13.4;100
75089;BME280;63673;49.928;8.150;2022-10-16T00:58:08;988.17;;;13.42;100
75089;BME280;63673;49.928;8.150;2022-10-16T00:59:11;988.22;;;13.42;100
75089;BME280;63673;49.928;8.150;2022-10-16T01:00:12;988.32;;;13.44;100
75089;BME280;63673;49.928;8.150;2022-10-16T01:01:13;988.36;;;13.45;100
75089;BME280;63673;49.928;8.150;2022-10-16T01:02:15;988.34;;;13.45;100
75089;BME280;63673;49.928;8.150;2022-10-16T01:03:25;988.35;;;13.46;100
75089;BME280;63673;49.928;8.150;2022-10-16T01:04:18;988.32;;;13.47;100
75089;BME280;63673;49.928;8.150;2022-10-16T01:05:21;988.28;;;13.47;100
75089;BME280;63673;49.928;8.150;2022-10-16T01:06:23;988.23;;;13.47;100
75089;BME280;63673;49.928;8.150;2022-10-16T01:07:27;988.19;;;13.48;100
75089;BME280;63673;49.928;8.150;2022-10-16T01:08:26;988.17;;;13.49;100
75089;BME280;63673;49.928;8.150;2022-10-16T01:09:28;988.21;;;13.5;100
75089;BME280;63673;49.928;8.150;2022-10-16T01:10:30;988.32;;;13.51;100
75089;BME280;63673;49.928;8.150;2022-10-16T01:11:33;988.31;;;13.51;100
75089;BME280;63673;49.928;8.150;2022-10-16T01:12:33;988.25;;;13.51;100
75089;BME280;63673;49.928;8.150;2022-10-16T01:13:35;988.21;;;13.52;100
75089;BME280;63673;49.928;8.150;2022-10-16T01:14:38;988.22;;;13.52;100
75089;BME280;63673;49.928;8.150;2022-10-16T01:15:39;988.21;;;13.52;100
75089;BME280;63673;49.928;8.150;2022-10-16T01:16:40;988.24;;;13.52;100
75089;BME280;63673;49.928;8.150;2022-10-16T01:17:41;988.24;;;13.52;100
75089;BME280;63673;49.928;8.150;2022-10-16T01:18:43;988.26;;;13.52;100
75089;BME280;63673;49.928;8.150;2022-10-16T01:19:50;988.25;;;13.52;100
75089;BME280;63673;49.928;8.150;2022-10-16T01:20:47;988.28;;;13.51;100
75089;BME280;63673;49.928;8.150;2022-10-16T01:21:48;988.31;;;13.52;100
75089;BME280;63673;49.928;8.150;2022-10-16T01:22:54;988.33;;;13.51;100
75089;BME280;63673;49.928;8.150;2022-10-16T01:23:54;988.28;;;13.51;100
75089;BME280;63673;49.928;8.150;2022-10-16T01:24:53;988.33;;;13.51;100
75089;BME280;63673;49.928;8.150;2022-10-16T01:25:59;988.39;;;13.51;100
75089;BME280;63673;49.928;8.150;2022-10-16T01:27:01;988.31;;;13.51;100
75089;BME280;63673;49.928;8.150;2022-10-16T01:27:58;988.33;;;13.5;100
75089;BME280;63673;49.928;8.150;2022-10-16T01:29:01;988.29;;;13.51;100
75089;BME280;63673;49.928;8.150;2022-10-16T01:30:03;988.32;;;13.51;100
75089;BME280;63673;49.928;8.150;2022-10-16T01:31:03;988.32;;;13.51;100
75089;BME280;63673;49.928;8.150;2022-10-16T01:32:17;988.3;;;13.51;100
75089;BME280;63673;49.928;8.150;2022-10-16T01:33:08;988.34;;;13.51;100
75089;BME280;63673;49.928;8.150;2022-10-16T01:34:10;988.32;;;13.5;100
75089;BME280;63673;49.928;8.150;2022-10-16T01:35:11;988.28;;;13.5;100
75089;BME280;63673;49.928;8.150;2022-10-16T01:36:13;988.33;;;13.5;100
75089;BME280;63673;49.928;8.150;2022-10-16T01:37:14;988.35;;;13.49;100
75089;BME280;63673;49.928;8.150;2022-10-16T01:38:16;988.34;;;13.49;100
75089;BME280;63673;49.928;8.150;2022-10-16T01:39:18;988.28;;;13.49;100
75089;BME280;63673;49.928;8.150;2022-10-16T01:40:19;988.24;;;13.48;100
75089;BME280;63673;49.928;8.150;2022-10-16T01:41:21;988.29;;;13.48;100
75089;BME280;63673;49.928;8.150;2022-10-16T01:42:23;988.31;;;13.49;100
75089;BME280;63673;49.928;8.150;2022-10-16T01:43:25;988.36;;;13.49;100
75089;BME280;63673;49.928;8.150;2022-10-16T01:44:26;988.34;;;13.48;100
75089;BME280;63673;49.928;8.150;2022-10-16T01:45:28;988.43;;;13.49;100
75089;BME280;63673;49.928;8.150;2022-10-16T01:46:30;988.44;;;13.49;100
75089;BME280;63673;49.928;8.150;2022-10-16T01:47:31;988.49;;;13.49;100
75089;BME280;63673;49.928;8.150;2022-10-16T01:48:33;988.5;;;13.5;100
75089;BME280;63673;49.928;8.150;2022-10-16T01:49:35;988.47;;;13.51;100
75089;BME280;63673;49.928;8.150;2022-10-16T01:50:37;988.52;;;13.52;100
75089;BME280;63673;49.928;8.150;2022-10-16T01:51:38;988.49;;;13.54;100
75089;BME280;63673;49.928;8.150;2022-10-16T01:52:41;988.5;;;13.55;100
75089;BME280;63673;49.928;8.150;2022-10-16T01:53:42;988.44;;;13.56;100
75089;BME280;63673;49.928;8.150;2022-10-16T01:54:44;988.41;;;13.57;100
75089;BME280;63673;49.928;8.150;2022-10-16T01:55:46;988.42;;;13.57;100
75089;BME280;63673;49.928;8.150;2022-10-16T01:56:47;988.4;;;13.6;100
75089;BME280;63673;49.928;8.150;2022-10-16T01:57:49;988.39;;;13.61;100
75089;BME280;63673;49.928;8.150;2022-10-16T01:58:52;988.38;;;13.61;100
75089;BME280;63673;49.928;8.150;2022-10-16T01:59:52;988.4;;;13.62;100
75089;BME280;63673;49.928;8.150;2022-10-16T02:00:54;988.38;;;13.63;100
75089;BME280;63673;49.928;8.150;2022-10-16T02:01:56;988.37;;;13.64;100
75089;BME280;63673;49.928;8.150;2022-10-16T02:02:57;988.43;;;13.65;100
75089;BME280;63673;49.928;8.150;2022-10-16T02:03:59;988.45;;;13.65;100
75089;BME280;63673;49.928;8.150;2022-10-16T02:05:02;988.47;;;13.66;100
75089;BME280;63673;49.928;8.150;2022-10-16T02:06:02;988.44;;;13.67;100
75089;BME280;63673;49.928;8.150;2022-10-16T02:07:04;988.46;;;13.67;100
75089;BME280;63673;49.928;8.150;2022-10-16T02:08:06;988.46;;;13.68;100
75089;BME280;63673;49.928;8.150;2022-10-16T02:09:08;988.5;;;13.68;100
75089;BME280;63673;49.928;8.150;2022-10-16T02:10:09;988.52;;;13.68;100
75089;BME280;63673;49.928;8.150;2022-10-16T02:11:11;988.51;;;13.7;100
75089;BME280;63673;49.928;8.150;2022-10-16T02:12:13;988.54;;;13.69;100
75089;BME280;63673;49.928;8.150;2022-10-16T02:13:16;988.46;;;13.7;100
75089;BME280;63673;49.928;8.150;2022-10-16T02:14:16;988.48;;;13.7;100
75089;BME280;63673;49.928;8.150;2022-10-16T02:15:18;988.48;;;13.71;100
75089;BME280;63673;49.928;8.150;2022-10-16T02:16:20;988.48;;;13.72;100
75089;BME280;63673;49.928;8.150;2022-10-16T02:17:21;988.52;;;13.72;100
75089;BME280;63673;49.928;8.150;2022-10-16T02:18:23;988.54;;;13.72;100
75089;BME280;63673;49.928;8.150;2022-10-16T02:19:25;988.55;;;13.73;100
75089;BME280;63673;49.928;8.150;2022-10-16T02:20:27;988.57;;;13.74;100
75089;BME280;63673;49.928;8.150;2022-10-16T02:21:29;988.62;;;13.74;100
75089;BME280;63673;49.928;8.150;2022-10-16T02:22:31;988.6;;;13.74;100
75089;BME280;63673;49.928;8.150;2022-10-16T02:23:34;988.57;;;13.74;100
75089;BME280;63673;49.928;8.150;2022-10-16T02:24:36;988.62;;;13.75;100
75089;BME280;63673;49.928;8.150;2022-10-16T02:25:37;988.57;;;13.74;100
75089;BME280;63673;49.928;8.150;2022-10-16T02:26:39;988.57;;;13.74;100
75089;BME280;63673;49.928;8.150;2022-10-16T02:27:40;988.6;;;13.74;100
75089;BME280;63673;49.928;8.150;2022-10-16T02:28:41;988.6;;;13.74;100
75089;BME280;63673;49.928;8.150;2022-10-16T02:29:43;988.6;;;13.74;100
75089;BME280;63673;49.928;8.150;2022-10-16T02:30:44;988.62;;;13.74;100
75089;BME280;63673;49.928;8.150;2022-10-16T02:31:46;988.64;;;13.75;100
75089;BME280;63673;49.928;8.150;2022-10-16T02:32:48;988.6;;;13.74;100
75089;BME280;63673;49.928;8.150;2022-10-16T02:33:49;988.63;;;13.74;100
75089;BME280;63673;49.928;8.150;2022-10-16T02:34:51;988.64;;;13.74;100
75089;BME280;63673;49.928;8.150;2022-10-16T02:35:53;988.75;;;13.73;100
75089;BME280;63673;49.928;8.150;2022-10-16T02:36:54;988.79;;;13.74;100
75089;BME280;63673;49.928;8.150;2022-10-16T02:37:56;988.83;;;13.74;100
75089;BME280;63673;49.928;8.150;2022-10-16T02:38:58;988.88;;;13.74;100
75089;BME280;63673;49.928;8.150;2022-10-16T02:40:00;988.88;;;13.74;100
75089;BME280;63673;49.928;8.150;2022-10-16T02:41:01;988.83;;;13.73;100
75089;BME280;63673;49.928;8.150;2022-10-16T02:42:03;988.8;;;13.73;100
75089;BME280;63673;49.928;8.150;2022-10-16T02:43:05;988.78;;;13.73;100
75089;BME280;63673;49.928;8.150;2022-10-16T02:44:07;988.76;;;13.73;100
75089;BME280;63673;49.928;8.150;2022-10-16T02:45:09;988.73;;;13.74;100
75089;BME280;63673;49.928;8.150;2022-10-16T02:46:10;988.7;;;13.72;100
75089;BME280;63673;49.928;8.150;2022-10-16T02:47:12;988.66;;;13.72;100
75089;BME280;63673;49.928;8.150;2022-10-16T02:48:13;988.65;;;13.72;100
75089;BME280;63673;49.928;8.150;2022-10-16T02:49:15;988.68;;;13.73;100
75089;BME280;63673;49.928;8.150;2022-10-16T02:50:17;988.65;;;13.72;100
75089;BME280;63673;49.928;8.150;2022-10-16T02:51:19;988.62;;;13.71;100
75089;BME280;63673;49.928;8.150;2022-10-16T02:52:20;988.63;;;13.7;100
75089;BME280;63673;49.928;8.150;2022-10-16T02:53:22;988.67;;;13.7;100
75089;BME280;63673;49.928;8.150;2022-10-16T02:54:24;988.68;;;13.7;100
75089;BME280;63673;49.928;8.150;2022-10-16T02:55:26;988.68;;;13.7;100
75089;BME280;63673;49.928;8.150;2022-10-16T02:56:27;988.72;;;13.69;100
75089;BME280;63673;49.928;8.150;2022-10-16T02:57:29;988.72;;;13.69;100
75089;BME280;63673;49.928;8.150;2022-10-16T02:58:31;988.73;;;13.68;100
75089;BME280;63673;49.928;8.150;2022-10-16T02:59:33;988.75;;;13.68;100
75089;BME280;63673;49.928;8.150;2022-10-16T03:00:34;988.73;;;13.68;100
75089;BME280;63673;49.928;8.150;2022-10-16T03:01:36;988.72;;;13.68;100
75089;BME280;63673;49.928;8.150;2022-10-16T03:02:38;988.68;;;13.69;100
75089;BME280;63673;49.928;8.150;2022-10-16T03:03:39;988.71;;;13.69;100
75089;BME280;63673;49.928;8.150;2022-10-16T03:04:41;988.68;;;13.68;100
75089;BME280;63673;49.928;8.150;2022-10-16T03:05:43;988.65;;;13.68;100
75089;BME280;63673;49.928;8.150;2022-10-16T03:06:45;988.64;;;13.68;100
75089;BME280;63673;49.928;8.150;2022-10-16T03:07:46;988.74;;;13.68;100
75089;BME280;63673;49.928;8.150;2022-10-16T03:08:48;988.73;;;13.68;100
75089;BME280;63673;49.928;8.150;2022-10-16T03:09:50;988.7;;;13.68;100
75089;BME280;63673;49.928;8.150;2022-10-16T03:10:52;988.73;;;13.67;100
75089;BME280;63673;49.928;8.150;2022-10-16T03:11:53;988.76;;;13.68;100
75089;BME280;63673;49.928;8.150;2022-10-16T03:12:55;988.7;;;13.67;100
75089;BME280;63673;49.928;8.150;2022-10-16T03:13:57;988.75;;;13.67;100
75089;BME280;63673;49.928;8.150;2022-10-16T03:14:59;988.78;;;13.67;100
75089;BME280;63673;49.928;8.150;2022-10-16T03:16:00;988.82;;;13.67;100
75089;BME280;63673;49.928;8.150;2022-10-16T03:17:02;988.79;;;13.68;100
75089;BME280;63673;49.928;8.150;2022-10-16T03:18:04;988.78;;;13.67;100
75089;BME280;63673;49.928;8.150;2022-10-16T03:19:05;988.79;;;13.67;100
75089;BME280;63673;49.928;8.150;2022-10-16T03:20:07;988.81;;;13.68;100
75089;BME280;63673;49.928;8.150;2022-10-16T03:21:09;988.83;;;13.68;100
75089;BME280;63673;49.928;8.150;2022-10-16T03:22:11;988.84;;;13.67;100
75089;BME280;63673;49.928;8.150;2022-10-16T03:23:12;988.86;;;13.67;100
75089;BME280;63673;49.928;8.150;2022-10-16T03:24:14;988.8;;;13.67;100
75089;BME280;63673;49.928;8.150;2022-10-16T03:25:16;988.79;;;13.67;100
75089;BME280;63673;49.928;8.150;2022-10-16T03:26:18;988.79;;;13.67;100
75089;BME280;63673;49.928;8.150;2022-10-16T03:27:20;988.84;;;13.67;100
75089;BME280;63673;49.928;8.150;2022-10-16T03:28:21;988.84;;;13.67;100
75089;BME280;63673;49.928;8.150;2022-10-16T03:29:23;988.83;;;13.67;100
75089;BME280;63673;49.928;8.150;2022-10-16T03:30:25;988.82;;;13.67;100
75089;BME280;63673;49.928;8.150;2022-10-16T03:31:26;988.84;;;13.66;100
75089;BME280;63673;49.928;8.150;2022-10-16T03:32:28;988.8;;;13.67;100
75089;BME280;63673;49.928;8.150;2022-10-16T03:33:30;988.78;;;13.66;100
75089;BME280;63673;49.928;8.150;2022-10-16T03:34:31;988.75;;;13.66;100
75089;BME280;63673;49.928;8.150;2022-10-16T03:35:33;988.73;;;13.66;100
75089;BME280;63673;49.928;8.150;2022-10-16T03:36:35;988.77;;;13.65;100
75089;BME280;63673;49.928;8.150;2022-10-16T03:37:37;988.78;;;13.65;100
75089;BME280;63673;49.928;8.150;2022-10-16T03:38:38;988.83;;;13.65;100
75089;BME280;63673;49.928;8.150;2022-10-16T03:39:40;988.86;;;13.65;100
75089;BME280;63673;49.928;8.150;2022-10-16T03:40:42;988.83;;;13.64;100
75089;BME280;63673;49.928;8.150;2022-10-16T03:41:44;988.85;;;13.64;100
75089;BME280;63673;49.928;8.150;2022-10-16T03:42:45;988.83;;;13.63;100
75089;BME280;63673;49.928;8.150;2022-10-16T03:43:47;988.88;;;13.63;100
75089;BME280;63673;49.928;8.150;2022-10-16T03:44:49;988.91;;;13.62;100
75089;BME280;63673;49.928;8.150;2022-10-16T03:45:51;989.01;;;13.62;100
75089;BME280;63673;49.928;8.150;2022-10-16T03:46:52;989.03;;;13.61;100
75089;BME280;63673;49.928;8.150;2022-10-16T03:47:54;989.06;;;13.6;100
75089;BME280;63673;49.928;8.150;2022-10-16T03:48:56;989.04;;;13.6;100
75089;BME280;63673;49.928;8.150;2022-10-16T03:49:58;988.99;;;13.6;100
75089;BME280;63673;49.928;8.150;2022-10-16T03:50:59;988.97;;;13.6;100
75089;BME280;63673;49.928;8.150;2022-10-16T03:52:01;988.95;;;13.59;100
75089;BME280;63673;49.928;8.150;2022-10-16T03:53:03;988.92;;;13.58;100
75089;BME280;63673;49.928;8.150;2022-10-16T03:54:04;988.9;;;13.58;100
75089;BME280;63673;49.928;8.150;2022-10-16T03:55:06;988.91;;;13.58;100
75089;BME280;63673;49.928;8.150;2022-10-16T03:56:08;988.94;;;13.58;100
75089;BME280;63673;49.928;8.150;2022-10-16T03:57:10;988.96;;;13.58;100
75089;BME280;63673;49.928;8.150;2022-10-16T03:58:11;989.01;;;13.58;100
75089;BME280;63673;49.928;8.150;2022-10-16T03:59:13;989;;;13.58;100
75089;BME280;63673;49.928;8.150;2022-10-16T04:00:15;989.05;;;13.57;100
75089;BME280;63673;49.928;8.150;2022-10-16T04:01:17;989.04;;;13.57;100
75089;BME280;63673;49.928;8.150;2022-10-16T04:02:18;989.04;;;13.57;100
75089;BME280;63673;49.928;8.150;2022-10-16T04:03:20;989.03;;;13.58;100
75089;BME280;63673;49.928;8.150;2022-10-16T04:04:22;989.04;;;13.58;100
75089;BME280;63673;49.928;8.150;2022-10-16T04:05:24;988.98;;;13.58;100
75089;BME280;63673;49.928;8.150;2022-10-16T04:06:25;988.95;;;13.57;100
75089;BME280;63673;49.928;8.150;2022-10-16T04:07:27;988.93;;;13.57;100
75089;BME280;63673;49.928;8.150;2022-10-16T04:08:29;988.9;;;13.58;100
75089;BME280;63673;49.928;8.150;2022-10-16T04:09:31;988.93;;;13.57;100
75089;BME280;63673;49.928;8.150;2022-10-16T04:10:32;988.97;;;13.57;100
75089;BME280;63673;49.928;8.150;2022-10-16T04:11:34;988.93;;;13.57;100
75089;BME280;63673;49.928;8.150;2022-10-16T04:12:36;988.91;;;13.56;100
75089;BME280;63673;49.928;8.150;2022-10-16T04:13:37;988.89;;;13.56;100
75089;BME280;63673;49.928;8.150;2022-10-16T04:14:39;988.87;;;13.56;100
75089;BME280;63673;49.928;8.150;2022-10-16T04:15:41;988.85;;;13.55;100
75089;BME280;63673;49.928;8.150;2022-10-16T04:16:43;988.84;;;13.55;100
75089;BME280;63673;49.928;8.150;2022-10-16T04:17:44;988.86;;;13.54;100
75089;BME280;63673;49.928;8.150;2022-10-16T04:18:46;988.84;;;13.54;100
75089;BME280;63673;49.928;8.150;2022-10-16T04:19:48;988.88;;;13.53;100
75089;BME280;63673;49.928;8.150;2022-10-16T04:20:50;988.89;;;13.53;100
75089;BME280;63673;49.928;8.150;2022-10-16T04:21:51;988.94;;;13.51;100
75089;BME280;63673;49.928;8.150;2022-10-16T04:22:53;988.92;;;13.51;100
75089;BME280;63673;49.928;8.150;2022-10-16T04:23:55;988.95;;;13.5;100
75089;BME280;63673;49.928;8.150;2022-10-16T04:24:56;988.91;;;13.5;100
75089;BME280;63673;49.928;8.150;2022-10-16T04:25:58;988.94;;;13.49;100
75089;BME280;63673;49.928;8.150;2022-10-16T04:27:00;988.96;;;13.49;100
75089;BME280;63673;49.928;8.150;2022-10-16T04:28:02;988.98;;;13.48;100
75089;BME280;63673;49.928;8.150;2022-10-16T04:29:03;989.03;;;13.48;100
75089;BME280;63673;49.928;8.150;2022-10-16T04:30:05;989.04;;;13.48;100
75089;BME280;63673;49.928;8.150;2022-10-16T04:31:07;989.05;;;13.47;100
75089;BME280;63673;49.928;8.150;2022-10-16T04:32:09;989.06;;;13.46;100
75089;BME280;63673;49.928;8.150;2022-10-16T04:33:10;989.04;;;13.45;100
75089;BME280;63673;49.928;8.150;2022-10-16T04:34:12;989.02;;;13.45;100
75089;BME280;63673;49.928;8.150;2022-10-16T04:35:14;989.07;;;13.45;100
75089;BME280;63673;49.928;8.150;2022-10-16T04:36:16;989.08;;;13.44;100
75089;BME280;63673;49.928;8.150;2022-10-16T04:37:17;989.05;;;13.43;100
75089;BME280;63673;49.928;8.150;2022-10-16T04:38:19;989.08;;;13.43;100
75089;BME280;63673;49.928;8.150;2022-10-16T04:39:21;989.11;;;13.42;100
75089;BME280;63673;49.928;8.150;2022-10-16T04:40:23;989.1;;;13.42;100
75089;BME280;63673;49.928;8.150;2022-10-16T04:41:24;989.1;;;13.42;100
75089;BME280;63673;49.928;8.150;2022-10-16T04:42:26;989.13;;;13.41;100
75089;BME280;63673;49.928;8.150;2022-10-16T04:43:28;989.14;;;13.41;100
75089;BME280;63673;49.928;8.150;2022-10-16T04:44:29;989.16;;;13.41;100
75089;BME280;63673;49.928;8.150;2022-10-16T04:45:31;989.15;;;13.4;100
75089;BME280;63673;49.928;8.150;2022-10-16T04:46:33;989.15;;;13.41;100
75089;BME280;63673;49.928;8.150;2022-10-16T04:47:35;989.18;;;13.4;100
75089;BME280;63673;49.928;8.150;2022-10-16T04:48:36;989.19;;;13.4;100
75089;BME280;63673;49.928;8.150;2022-10-16T04:49:38;989.19;;;13.39;100
75089;BME280;63673;49.928;8.150;2022-10-16T04:50:40;989.18;;;13.4;100
75089;BME280;63673;49.928;8.150;2022-10-16T04:51:42;989.18;;;13.38;100
75089;BME280;63673;49.928;8.150;2022-10-16T04:52:43;989.19;;;13.38;100
75089;BME280;63673;49.928;8.150;2022-10-16T04:53:45;989.2;;;13.38;100
75089;BME280;63673;49.928;8.150;2022-10-16T04:54:47;989.27;;;13.38;100
75089;BME280;63673;49.928;8.150;2022-10-16T04:55:49;989.23;;;13.38;100
75089;BME280;63673;49.928;8.150;2022-10-16T04:56:50;989.24;;;13.37;100
75089;BME280;63673;49.928;8.150;2022-10-16T04:57:52;989.3;;;13.37;100
75089;BME280;63673;49.928;8.150;2022-10-16T04:58:54;989.27;;;13.36;100
75089;BME280;63673;49.928;8.150;2022-10-16T04:59:55;989.23;;;13.37;100
75089;BME280;63673;49.928;8.150;2022-10-16T05:00:57;989.26;;;13.36;100
75089;BME280;63673;49.928;8.150;2022-10-16T05:01:59;989.28;;;13.37;100
75089;BME280;63673;49.928;8.150;2022-10-16T05:03:01;989.28;;;13.37;100
75089;BME280;63673;49.928;8.150;2022-10-16T05:04:02;989.26;;;13.36;100
75089;BME280;63673;49.928;8.150;2022-10-16T05:05:04;989.24;;;13.36;100
75089;BME280;63673;49.928;8.150;2022-10-16T05:06:06;989.19;;;13.36;100
75089;BME280;63673;49.928;8.150;2022-10-16T05:07:08;989.16;;;13.36;100
75089;BME280;63673;49.928;8.150;2022-10-16T05:08:09;989.19;;;13.35;100
75089;BME280;63673;49.928;8.150;2022-10-16T05:09:11;989.13;;;13.36;100
75089;BME280;63673;49.928;8.150;2022-10-16T05:10:13;989.2;;;13.34;100
75089;BME280;63673;49.928;8.150;2022-10-16T05:11:15;989.24;;;13.34;100
75089;BME280;63673;49.928;8.150;2022-10-16T05:12:16;989.2;;;13.34;100
75089;BME280;63673;49.928;8.150;2022-10-16T05:13:18;989.24;;;13.34;100
75089;BME280;63673;49.928;8.150;2022-10-16T05:14:20;989.21;;;13.34;100
75089;BME280;63673;49.928;8.150;2022-10-16T05:15:22;989.22;;;13.34;100
75089;BME280;63673;49.928;8.150;2022-10-16T05:16:23;989.23;;;13.33;100
75089;BME280;63673;49.928;8.150;2022-10-16T05:17:25;989.21;;;13.34;100
75089;BME280;63673;49.928;8.150;2022-10-16T05:18:27;989.18;;;13.33;100
75089;BME280;63673;49.928;8.150;2022-10-16T05:19:28;989.09;;;13.32;100
75089;BME280;63673;49.928;8.150;2022-10-16T05:20:30;989.08;;;13.33;100
75089;BME280;63673;49.928;8.150;2022-10-16T05:21:32;989.06;;;13.31;100
75089;BME280;63673;49.928;8.150;2022-10-16T05:22:34;988.98;;;13.31;100
75089;BME280;63673;49.928;8.150;2022-10-16T05:23:35;989.06;;;13.31;100
75089;BME280;63673;49.928;8.150;2022-10-16T05:24:37;989.11;;;13.3;100
75089;BME280;63673;49.928;8.150;2022-10-16T05:25:39;989.07;;;13.29;100
75089;BME280;63673;49.928;8.150;2022-10-16T05:26:41;989.05;;;13.29;100
75089;BME280;63673;49.928;8.150;2022-10-16T05:27:42;989.14;;;13.27;100
75089;BME280;63673;49.928;8.150;2022-10-16T05:28:44;989.13;;;13.27;100
75089;BME280;63673;49.928;8.150;2022-10-16T05:29:46;989.14;;;13.25;100
75089;BME280;63673;49.928;8.150;2022-10-16T05:30:48;989.2;;;13.25;100
75089;BME280;63673;49.928;8.150;2022-10-16T05:31:50;989.22;;;13.25;100
75089;BME280;63673;49.928;8.150;2022-10-16T05:32:51;989.24;;;13.24;100
75089;BME280;63673;49.928;8.150;2022-10-16T05:33:57;989.27;;;13.25;100
75089;BME280;63673;49.928;8.150;2022-10-16T05:34:54;989.34;;;13.24;100
75089;BME280;63673;49.928;8.150;2022-10-16T05:35:56;989.34;;;13.26;100
75089;BME280;63673;49.928;8.150;2022-10-16T05:36:58;989.37;;;13.26;100
75089;BME280;63673;49.928;8.150;2022-10-16T05:38:00;989.36;;;13.27;100
75089;BME280;63673;49.928;8.150;2022-10-16T05:39:02;989.38;;;13.27;100
75089;BME280;63673;49.928;8.150;2022-10-16T05:40:03;989.4;;;13.27;100
75089;BME280;63673;49.928;8.150;2022-10-16T05:41:05;989.41;;;13.28;100
75089;BME280;63673;49.928;8.150;2022-10-16T05:42:07;989.45;;;13.28;100
75089;BME280;63673;49.928;8.150;2022-10-16T05:43:08;989.4;;;13.29;100
75089;BME280;63673;49.928;8.150;2022-10-16T05:44:10;989.51;;;13.3;100
75089;BME280;63673;49.928;8.150;2022-10-16T05:45:12;989.53;;;13.3;100
75089;BME280;63673;49.928;8.150;2022-10-16T05:46:14;989.55;;;13.31;100